sensor_id;sensor_type;location;lat;lon;timestamp;temperature;humidity
2477;DHT22;1249;51.270;6.756;2023-08-12T00:01:16;25.70;93.70
2477;DHT22;1249;51.270;6.756;2023-08-12T00:03:42;25.70;93.80
2477;DHT22;1249;51.270;6.756;2023-08-12T00:06:07;25.70;94.00
2477;DHT22;1249;51.270;6.756;2023-08-12T00:08:33;25.70;94.20
2477;DHT22;1249;51.270;6.756;2023-08-12T00:10:58;25.60;94.30
2477;DHT22;1249;51.270;6.756;2023-08-12T00:13:24;25.60;94.40
2477;DHT22;1249;51.270;6.756;2023-08-12T00:15:49;25.60;94.60
2477;DHT22;1249;51.270;6.756;2023-08-12T00:18:15;25.60;94.70
2477;DHT22;1249;51.270;6.756;2023-08-12T00:20:41;25.60;94.90
2477;DHT22;1249;51.270;6.756;2023-08-12T00:23:07;25.50;95.10
2477;DHT22;1249;51.270;6.756;2023-08-12T00:25:33;25.50;95.30
2477;DHT22;1249;51.270;6.756;2023-08-12T00:27:59;25.50;95.50
2477;DHT22;1249;51.270;6.756;2023-08-12T00:30:24;25.50;95.60
2477;DHT22;1249;51.270;6.756;2023-08-12T00:32:50;25.50;95.70
2477;DHT22;1249;51.270;6.756;2023-08-12T00:35:15;25.50;95.90
2477;DHT22;1249;51.270;6.756;2023-08-12T00:37:41;25.40;96.00
2477;DHT22;1249;51.270;6.756;2023-08-12T00:40:06;25.50;96.20
2477;DHT22;1249;51.270;6.756;2023-08-12T00:42:32;25.40;96.30
2477;DHT22;1249;51.270;6.756;2023-08-12T00:44:58;25.40;96.50
2477;DHT22;1249;51.270;6.756;2023-08-12T00:47:23;25.40;96.60
2477;DHT22;1249;51.270;6.756;2023-08-12T00:49:49;25.40;96.80
2477;DHT22;1249;51.270;6.756;2023-08-12T00:52:14;25.40;96.90
2477;DHT22;1249;51.270;6.756;2023-08-12T00:54:40;25.40;97.10
2477;DHT22;1249;51.270;6.756;2023-08-12T00:57:06;25.30;97.10
2477;DHT22;1249;51.270;6.756;2023-08-12T00:59:33;25.30;97.30
2477;DHT22;1249;51.270;6.756;2023-08-12T01:02:00;25.30;97.40
2477;DHT22;1249;51.270;6.756;2023-08-12T01:04:26;25.30;97.60
2477;DHT22;1249;51.270;6.756;2023-08-12T01:06:51;25.30;97.80
2477;DHT22;1249;51.270;6.756;2023-08-12T01:09:17;25.30;97.90
2477;DHT22;1249;51.270;6.756;2023-08-12T01:11:45;25.30;98.10
2477;DHT22;1249;51.270;6.756;2023-08-12T01:16:56;25.20;98.40
2477;DHT22;1249;51.270;6.756;2023-08-12T01:19:33;25.20;98.50
2477;DHT22;1249;51.270;6.756;2023-08-12T01:21:59;25.20;98.70
2477;DHT22;1249;51.270;6.756;2023-08-12T01:24:26;25.20;98.80
2477;DHT22;1249;51.270;6.756;2023-08-12T01:26:51;25.20;99.10
2477;DHT22;1249;51.270;6.756;2023-08-12T01:29:17;25.20;99.30
2477;DHT22;1249;51.270;6.756;2023-08-12T01:31:45;25.20;99.40
2477;DHT22;1249;51.270;6.756;2023-08-12T01:34:26;25.10;99.70
2477;DHT22;1249;51.270;6.756;2023-08-12T01:36:54;25.10;99.70
2477;DHT22;1249;51.270;6.756;2023-08-12T01:39:21;25.10;99.90
2477;DHT22;1249;51.270;6.756;2023-08-12T01:41:46;25.10;99.90
2477;DHT22;1249;51.270;6.756;2023-08-12T01:44:12;25.10;99.90
2477;DHT22;1249;51.270;6.756;2023-08-12T01:46:37;25.10;99.90
2477;DHT22;1249;51.270;6.756;2023-08-12T01:49:03;25.10;99.90
2477;DHT22;1249;51.270;6.756;2023-08-12T01:51:29;25.00;99.90
2477;DHT22;1249;51.270;6.756;2023-08-12T01:53:54;25.00;99.90
2477;DHT22;1249;51.270;6.756;2023-08-12T01:56:20;25.00;99.90
2477;DHT22;1249;51.270;6.756;2023-08-12T01:58:45;25.00;99.90
2477;DHT22;1249;51.270;6.756;2023-08-12T02:01:11;25.00;99.90
2477;DHT22;1249;51.270;6.756;2023-08-12T02:03:36;25.00;99.90
2477;DHT22;1249;51.270;6.756;2023-08-12T02:06:02;25.00;99.90
2477;DHT22;1249;51.270;6.756;2023-08-12T02:08:27;25.00;99.90
2477;DHT22;1249;51.270;6.756;2023-08-12T02:10:52;25.00;99.90
2477;DHT22;1249;51.270;6.756;2023-08-12T02:13:18;24.90;99.90
2477;DHT22;1249;51.270;6.756;2023-08-12T02:15:43;24.90;99.90
2477;DHT22;1249;51.270;6.756;2023-08-12T02:18:09;24.90;99.90
2477;DHT22;1249;51.270;6.756;2023-08-12T02:20:34;24.90;99.90
2477;DHT22;1249;51.270;6.756;2023-08-12T02:23:00;24.90;99.90
2477;DHT22;1249;51.270;6.756;2023-08-12T02:25:25;24.90;99.90
2477;DHT22;1249;51.270;6.756;2023-08-12T02:27:51;24.90;99.90
2477;DHT22;1249;51.270;6.756;2023-08-12T02:30:16;24.90;99.90
2477;DHT22;1249;51.270;6.756;2023-08-12T02:32:42;24.90;99.90
2477;DHT22;1249;51.270;6.756;2023-08-12T02:35:09;24.90;99.90
2477;DHT22;1249;51.270;6.756;2023-08-12T02:37:34;24.90;99.90
2477;DHT22;1249;51.270;6.756;2023-08-12T02:39:59;24.80;99.90
2477;DHT22;1249;51.270;6.756;2023-08-12T02:42:25;24.80;99.90
2477;DHT22;1249;51.270;6.756;2023-08-12T02:44:50;24.80;99.90
2477;DHT22;1249;51.270;6.756;2023-08-12T02:47:16;24.80;99.90
2477;DHT22;1249;51.270;6.756;2023-08-12T02:49:41;24.80;99.90
2477;DHT22;1249;51.270;6.756;2023-08-12T02:52:09;24.80;99.90
2477;DHT22;1249;51.270;6.756;2023-08-12T02:54:34;24.80;99.90
2477;DHT22;1249;51.270;6.756;2023-08-12T02:57:00;24.80;99.90
2477;DHT22;1249;51.270;6.756;2023-08-12T02:59:25;24.80;99.90
2477;DHT22;1249;51.270;6.756;2023-08-12T03:01:52;24.80;99.90
2477;DHT22;1249;51.270;6.756;2023-08-12T03:04:17;24.80;99.90
2477;DHT22;1249;51.270;6.756;2023-08-12T03:06:43;24.80;99.90
2477;DHT22;1249;51.270;6.756;2023-08-12T03:09:08;24.80;99.90
2477;DHT22;1249;51.270;6.756;2023-08-12T03:11:34;24.70;99.90
2477;DHT22;1249;51.270;6.756;2023-08-12T03:13:59;24.70;99.90
2477;DHT22;1249;51.270;6.756;2023-08-12T03:16:25;24.70;99.90
2477;DHT22;1249;51.270;6.756;2023-08-12T03:18:50;24.70;99.90
2477;DHT22;1249;51.270;6.756;2023-08-12T03:21:16;24.70;99.90
2477;DHT22;1249;51.270;6.756;2023-08-12T03:23:41;24.70;99.90
2477;DHT22;1249;51.270;6.756;2023-08-12T03:26:06;24.70;99.90
2477;DHT22;1249;51.270;6.756;2023-08-12T03:28:32;24.70;99.90
2477;DHT22;1249;51.270;6.756;2023-08-12T03:30:58;24.70;99.90
2477;DHT22;1249;51.270;6.756;2023-08-12T03:33:23;24.70;99.90
2477;DHT22;1249;51.270;6.756;2023-08-12T03:35:49;24.70;99.90
2477;DHT22;1249;51.270;6.756;2023-08-12T03:38:15;24.70;99.90
2477;DHT22;1249;51.270;6.756;2023-08-12T03:40:40;24.60;99.90
2477;DHT22;1249;51.270;6.756;2023-08-12T03:43:06;24.60;99.90
2477;DHT22;1249;51.270;6.756;2023-08-12T03:45:32;24.60;99.90
2477;DHT22;1249;51.270;6.756;2023-08-12T03:47:58;24.60;99.90
2477;DHT22;1249;51.270;6.756;2023-08-12T03:50:23;24.60;99.90
2477;DHT22;1249;51.270;6.756;2023-08-12T03:52:49;24.60;99.90
2477;DHT22;1249;51.270;6.756;2023-08-12T03:55:14;24.60;99.90
2477;DHT22;1249;51.270;6.756;2023-08-12T03:57:40;24.60;99.90
2477;DHT22;1249;51.270;6.756;2023-08-12T04:00:05;24.60;99.90
2477;DHT22;1249;51.270;6.756;2023-08-12T04:02:33;24.60;99.90
2477;DHT22;1249;51.270;6.756;2023-08-12T04:04:58;24.60;99.90
2477;DHT22;1249;51.270;6.756;2023-08-12T04:07:24;24.60;99.90
2477;DHT22;1249;51.270;6.756;2023-08-12T04:09:49;24.60;99.90
2477;DHT22;1249;51.270;6.756;2023-08-12T04:12:15;24.60;99.90
2477;DHT22;1249;51.270;6.756;2023-08-12T04:14:40;24.60;99.90
2477;DHT22;1249;51.270;6.756;2023-08-12T04:17:06;24.50;99.90
2477;DHT22;1249;51.270;6.756;2023-08-12T04:19:31;24.50;99.90
2477;DHT22;1249;51.270;6.756;2023-08-12T04:21:57;24.50;99.90
2477;DHT22;1249;51.270;6.756;2023-08-12T04:24:22;24.50;99.90
2477;DHT22;1249;51.270;6.756;2023-08-12T04:26:48;24.50;99.90
2477;DHT22;1249;51.270;6.756;2023-08-12T04:29:13;24.50;99.90
2477;DHT22;1249;51.270;6.756;2023-08-12T04:31:40;24.50;99.90
2477;DHT22;1249;51.270;6.756;2023-08-12T04:34:05;24.50;99.90
2477;DHT22;1249;51.270;6.756;2023-08-12T04:36:30;24.50;99.90
2477;DHT22;1249;51.270;6.756;2023-08-12T04:38:56;24.50;99.90
2477;DHT22;1249;51.270;6.756;2023-08-12T04:41:21;24.50;99.90
2477;DHT22;1249;51.270;6.756;2023-08-12T04:43:49;24.50;99.90
2477;DHT22;1249;51.270;6.756;2023-08-12T04:46:14;24.50;99.90
2477;DHT22;1249;51.270;6.756;2023-08-12T04:48:40;24.50;99.90
2477;DHT22;1249;51.270;6.756;2023-08-12T04:51:05;24.50;99.90
2477;DHT22;1249;51.270;6.756;2023-08-12T04:53:32;24.50;99.90
2477;DHT22;1249;51.270;6.756;2023-08-12T04:55:57;24.50;99.90
2477;DHT22;1249;51.270;6.756;2023-08-12T04:58:23;24.50;99.90
2477;DHT22;1249;51.270;6.756;2023-08-12T05:00:49;24.50;99.90
2477;DHT22;1249;51.270;6.756;2023-08-12T05:03:15;24.50;99.90
2477;DHT22;1249;51.270;6.756;2023-08-12T05:05:40;24.50;99.90
2477;DHT22;1249;51.270;6.756;2023-08-12T05:08:06;24.50;99.90
2477;DHT22;1249;51.270;6.756;2023-08-12T05:10:31;24.50;99.90
2477;DHT22;1249;51.270;6.756;2023-08-12T05:12:57;24.50;99.90
2477;DHT22;1249;51.270;6.756;2023-08-12T05:15:23;24.50;99.90
2477;DHT22;1249;51.270;6.756;2023-08-12T05:17:48;24.50;99.90
2477;DHT22;1249;51.270;6.756;2023-08-12T05:20:14;24.50;99.90
2477;DHT22;1249;51.270;6.756;2023-08-12T05:22:39;24.40;99.90
2477;DHT22;1249;51.270;6.756;2023-08-12T05:25:05;24.40;99.90
2477;DHT22;1249;51.270;6.756;2023-08-12T05:27:30;24.40;99.90
2477;DHT22;1249;51.270;6.756;2023-08-12T05:29:56;24.40;99.90
2477;DHT22;1249;51.270;6.756;2023-08-12T05:32:21;24.40;99.90
2477;DHT22;1249;51.270;6.756;2023-08-12T05:34:49;24.40;99.90
2477;DHT22;1249;51.270;6.756;2023-08-12T05:37:14;24.40;99.90
2477;DHT22;1249;51.270;6.756;2023-08-12T05:39:40;24.40;99.90
2477;DHT22;1249;51.270;6.756;2023-08-12T05:42:05;24.50;99.90
2477;DHT22;1249;51.270;6.756;2023-08-12T05:44:31;24.50;99.90
2477;DHT22;1249;51.270;6.756;2023-08-12T05:46:57;24.60;99.90
2477;DHT22;1249;51.270;6.756;2023-08-12T05:49:23;24.50;99.90
2477;DHT22;1249;51.270;6.756;2023-08-12T05:51:48;24.60;99.90
2477;DHT22;1249;51.270;6.756;2023-08-12T05:54:14;24.60;99.90
2477;DHT22;1249;51.270;6.756;2023-08-12T05:56:39;24.60;99.90
2477;DHT22;1249;51.270;6.756;2023-08-12T05:59:05;24.60;99.90
2477;DHT22;1249;51.270;6.756;2023-08-12T06:01:30;24.60;99.90
2477;DHT22;1249;51.270;6.756;2023-08-12T06:03:56;24.60;99.90
2477;DHT22;1249;51.270;6.756;2023-08-12T06:06:21;24.70;99.90
2477;DHT22;1249;51.270;6.756;2023-08-12T06:08:48;24.60;99.90
2477;DHT22;1249;51.270;6.756;2023-08-12T06:11:13;24.60;99.90
2477;DHT22;1249;51.270;6.756;2023-08-12T06:13:39;24.60;99.90
2477;DHT22;1249;51.270;6.756;2023-08-12T06:16:04;24.60;99.90
2477;DHT22;1249;51.270;6.756;2023-08-12T06:18:30;24.60;99.90
2477;DHT22;1249;51.270;6.756;2023-08-12T06:20:55;24.60;99.90
2477;DHT22;1249;51.270;6.756;2023-08-12T06:23:20;24.60;99.90
2477;DHT22;1249;51.270;6.756;2023-08-12T06:25:46;24.60;99.90
2477;DHT22;1249;51.270;6.756;2023-08-12T06:28:11;24.60;99.90
2477;DHT22;1249;51.270;6.756;2023-08-12T06:30:37;24.60;99.90
2477;DHT22;1249;51.270;6.756;2023-08-12T06:33:02;24.60;99.90
2477;DHT22;1249;51.270;6.756;2023-08-12T06:35:28;24.60;99.90
2477;DHT22;1249;51.270;6.756;2023-08-12T06:37:53;24.60;99.90
2477;DHT22;1249;51.270;6.756;2023-08-12T06:40:19;24.60;99.90
2477;DHT22;1249;51.270;6.756;2023-08-12T06:42:44;24.60;99.90
2477;DHT22;1249;51.270;6.756;2023-08-12T06:45:10;24.60;99.90
2477;DHT22;1249;51.270;6.756;2023-08-12T06:47:35;24.60;99.90
2477;DHT22;1249;51.270;6.756;2023-08-12T06:50:01;24.60;99.90
2477;DHT22;1249;51.270;6.756;2023-08-12T06:52:27;24.60;99.90
2477;DHT22;1249;51.270;6.756;2023-08-12T06:54:52;24.60;99.90
2477;DHT22;1249;51.270;6.756;2023-08-12T06:57:18;24.60;99.90
2477;DHT22;1249;51.270;6.756;2023-08-12T06:59:43;24.70;99.90
2477;DHT22;1249;51.270;6.756;2023-08-12T07:02:09;24.70;99.90
2477;DHT22;1249;51.270;6.756;2023-08-12T07:04:34;24.70;99.90
2477;DHT22;1249;51.270;6.756;2023-08-12T07:06:59;24.80;99.90
2477;DHT22;1249;51.270;6.756;2023-08-12T07:09:25;24.90;99.90
2477;DHT22;1249;51.270;6.756;2023-08-12T07:11:50;24.90;99.90
2477;DHT22;1249;51.270;6.756;2023-08-12T07:14:16;24.90;99.90
2477;DHT22;1249;51.270;6.756;2023-08-12T07:16:41;24.90;99.90
2477;DHT22;1249;51.270;6.756;2023-08-12T07:19:07;24.90;99.90
2477;DHT22;1249;51.270;6.756;2023-08-12T07:21:32;25.00;99.90
2477;DHT22;1249;51.270;6.756;2023-08-12T07:23:58;25.00;99.90
2477;DHT22;1249;51.270;6.756;2023-08-12T07:26:23;25.10;99.90
2477;DHT22;1249;51.270;6.756;2023-08-12T07:28:48;25.20;99.90
2477;DHT22;1249;51.270;6.756;2023-08-12T07:31:14;25.20;99.90
2477;DHT22;1249;51.270;6.756;2023-08-12T07:33:39;25.20;99.90
2477;DHT22;1249;51.270;6.756;2023-08-12T07:36:05;25.30;99.90
2477;DHT22;1249;51.270;6.756;2023-08-12T07:38:30;25.30;99.90
2477;DHT22;1249;51.270;6.756;2023-08-12T07:40:56;25.30;99.90
2477;DHT22;1249;51.270;6.756;2023-08-12T07:43:22;25.40;99.90
2477;DHT22;1249;51.270;6.756;2023-08-12T07:45:53;25.40;99.90
2477;DHT22;1249;51.270;6.756;2023-08-12T07:48:19;25.40;99.90
2477;DHT22;1249;51.270;6.756;2023-08-12T07:50:45;25.40;99.90
2477;DHT22;1249;51.270;6.756;2023-08-12T07:53:10;25.40;99.90
2477;DHT22;1249;51.270;6.756;2023-08-12T07:55:36;25.40;99.90
2477;DHT22;1249;51.270;6.756;2023-08-12T07:58:01;25.50;99.90
2477;DHT22;1249;51.270;6.756;2023-08-12T08:00:27;25.40;99.90
2477;DHT22;1249;51.270;6.756;2023-08-12T08:02:52;25.40;99.90
2477;DHT22;1249;51.270;6.756;2023-08-12T08:05:18;25.40;99.90
2477;DHT22;1249;51.270;6.756;2023-08-12T08:07:43;25.50;99.90
2477;DHT22;1249;51.270;6.756;2023-08-12T08:10:09;25.50;99.90
2477;DHT22;1249;51.270;6.756;2023-08-12T08:12:34;25.40;99.90
2477;DHT22;1249;51.270;6.756;2023-08-12T08:15:00;25.40;99.90
2477;DHT22;1249;51.270;6.756;2023-08-12T08:17:25;25.40;99.90
2477;DHT22;1249;51.270;6.756;2023-08-12T08:19:51;25.40;99.90
2477;DHT22;1249;51.270;6.756;2023-08-12T08:22:16;25.40;99.90
2477;DHT22;1249;51.270;6.756;2023-08-12T08:24:42;25.50;99.90
2477;DHT22;1249;51.270;6.756;2023-08-12T08:27:07;25.50;99.90
2477;DHT22;1249;51.270;6.756;2023-08-12T08:29:33;25.50;99.90
2477;DHT22;1249;51.270;6.756;2023-08-12T08:31:58;25.60;99.90
2477;DHT22;1249;51.270;6.756;2023-08-12T08:34:23;25.70;99.90
2477;DHT22;1249;51.270;6.756;2023-08-12T08:36:49;25.60;99.90
2477;DHT22;1249;51.270;6.756;2023-08-12T08:39:15;25.70;99.90
2477;DHT22;1249;51.270;6.756;2023-08-12T08:41:41;25.90;99.90
2477;DHT22;1249;51.270;6.756;2023-08-12T08:44:07;25.90;99.90
2477;DHT22;1249;51.270;6.756;2023-08-12T08:46:33;26.00;99.90
2477;DHT22;1249;51.270;6.756;2023-08-12T08:48:59;26.00;99.90
2477;DHT22;1249;51.270;6.756;2023-08-12T08:51:26;26.00;99.90
2477;DHT22;1249;51.270;6.756;2023-08-12T08:53:52;26.00;99.90
2477;DHT22;1249;51.270;6.756;2023-08-12T08:56:19;26.00;99.90
2477;DHT22;1249;51.270;6.756;2023-08-12T08:58:45;25.90;99.90
2477;DHT22;1249;51.270;6.756;2023-08-12T09:01:11;25.90;99.90
2477;DHT22;1249;51.270;6.756;2023-08-12T09:03:37;25.80;99.90
2477;DHT22;1249;51.270;6.756;2023-08-12T09:06:03;25.80;99.90
2477;DHT22;1249;51.270;6.756;2023-08-12T09:08:29;25.70;99.90
2477;DHT22;1249;51.270;6.756;2023-08-12T09:10:57;25.70;99.90
2477;DHT22;1249;51.270;6.756;2023-08-12T09:13:22;25.60;99.90
2477;DHT22;1249;51.270;6.756;2023-08-12T09:15:48;25.60;99.90
2477;DHT22;1249;51.270;6.756;2023-08-12T09:18:15;25.70;99.90
2477;DHT22;1249;51.270;6.756;2023-08-12T09:20:40;25.60;99.90
2477;DHT22;1249;51.270;6.756;2023-08-12T09:23:06;25.60;99.90
2477;DHT22;1249;51.270;6.756;2023-08-12T09:25:34;25.60;99.90
2477;DHT22;1249;51.270;6.756;2023-08-12T09:28:00;25.70;99.90
2477;DHT22;1249;51.270;6.756;2023-08-12T09:30:29;25.60;99.90
2477;DHT22;1249;51.270;6.756;2023-08-12T09:32:59;25.70;99.90
2477;DHT22;1249;51.270;6.756;2023-08-12T09:35:30;25.70;99.90
2477;DHT22;1249;51.270;6.756;2023-08-12T09:37:57;25.80;99.90
2477;DHT22;1249;51.270;6.756;2023-08-12T09:40:23;25.80;99.90
2477;DHT22;1249;51.270;6.756;2023-08-12T09:42:48;25.80;99.90
2477;DHT22;1249;51.270;6.756;2023-08-12T09:45:15;25.80;99.90
2477;DHT22;1249;51.270;6.756;2023-08-12T09:47:44;25.90;99.90
2477;DHT22;1249;51.270;6.756;2023-08-12T09:50:09;25.80;99.90
2477;DHT22;1249;51.270;6.756;2023-08-12T09:52:35;25.90;99.90
2477;DHT22;1249;51.270;6.756;2023-08-12T09:55:01;26.00;99.90
2477;DHT22;1249;51.270;6.756;2023-08-12T09:57:27;26.10;99.90
2477;DHT22;1249;51.270;6.756;2023-08-12T09:59:54;26.20;99.90
2477;DHT22;1249;51.270;6.756;2023-08-12T10:02:20;26.20;99.90
2477;DHT22;1249;51.270;6.756;2023-08-12T10:04:46;26.10;99.90
2477;DHT22;1249;51.270;6.756;2023-08-12T10:07:15;26.10;99.90
2477;DHT22;1249;51.270;6.756;2023-08-12T10:09:42;26.00;99.90
2477;DHT22;1249;51.270;6.756;2023-08-12T10:12:08;26.00;99.90
2477;DHT22;1249;51.270;6.756;2023-08-12T10:14:34;25.90;99.90
2477;DHT22;1249;51.270;6.756;2023-08-12T10:17:00;25.90;99.90
2477;DHT22;1249;51.270;6.756;2023-08-12T10:19:25;25.90;99.90
2477;DHT22;1249;51.270;6.756;2023-08-12T10:22:25;25.90;99.90
2477;DHT22;1249;51.270;6.756;2023-08-12T10:24:51;25.90;99.90
2477;DHT22;1249;51.270;6.756;2023-08-12T10:27:18;25.90;99.90
2477;DHT22;1249;51.270;6.756;2023-08-12T10:29:43;26.00;99.90
2477;DHT22;1249;51.270;6.756;2023-08-12T10:32:09;25.90;99.90
2477;DHT22;1249;51.270;6.756;2023-08-12T10:34:34;25.90;99.90
2477;DHT22;1249;51.270;6.756;2023-08-12T10:37:03;25.80;99.90
2477;DHT22;1249;51.270;6.756;2023-08-12T10:39:28;25.80;99.90
2477;DHT22;1249;51.270;6.756;2023-08-12T10:41:56;26.00;99.90
2477;DHT22;1249;51.270;6.756;2023-08-12T10:44:21;26.50;99.90
2477;DHT22;1249;51.270;6.756;2023-08-12T10:46:51;26.90;99.90
2477;DHT22;1249;51.270;6.756;2023-08-12T10:49:18;27.30;99.90
2477;DHT22;1249;51.270;6.756;2023-08-12T10:51:47;27.60;99.90
2477;DHT22;1249;51.270;6.756;2023-08-12T10:54:14;27.70;99.90
2477;DHT22;1249;51.270;6.756;2023-08-12T11:02:13;27.30;99.90
2477;DHT22;1249;51.270;6.756;2023-08-12T11:04:41;27.30;99.90
2477;DHT22;1249;51.270;6.756;2023-08-12T11:07:21;27.30;99.90
2477;DHT22;1249;51.270;6.756;2023-08-12T11:09:50;27.40;99.90
2477;DHT22;1249;51.270;6.756;2023-08-12T11:12:17;27.60;99.90
2477;DHT22;1249;51.270;6.756;2023-08-12T11:14:47;27.70;99.90
2477;DHT22;1249;51.270;6.756;2023-08-12T11:17:14;27.70;99.90
2477;DHT22;1249;51.270;6.756;2023-08-12T11:23:07;27.80;99.90
2477;DHT22;1249;51.270;6.756;2023-08-12T11:25:33;27.80;99.90
2477;DHT22;1249;51.270;6.756;2023-08-12T11:27:59;27.60;99.90
2477;DHT22;1249;51.270;6.756;2023-08-12T11:30:25;27.60;99.90
2477;DHT22;1249;51.270;6.756;2023-08-12T11:32:53;27.60;99.90
2477;DHT22;1249;51.270;6.756;2023-08-12T11:35:19;27.70;99.90
2477;DHT22;1249;51.270;6.756;2023-08-12T11:37:45;28.20;99.90
2477;DHT22;1249;51.270;6.756;2023-08-12T11:40:12;28.70;99.90
2477;DHT22;1249;51.270;6.756;2023-08-12T11:42:40;29.10;99.90
2477;DHT22;1249;51.270;6.756;2023-08-12T11:45:06;29.30;99.90
2477;DHT22;1249;51.270;6.756;2023-08-12T11:47:32;29.30;99.90
2477;DHT22;1249;51.270;6.756;2023-08-12T11:49:57;29.40;99.90
2477;DHT22;1249;51.270;6.756;2023-08-12T11:52:23;29.80;99.90
2477;DHT22;1249;51.270;6.756;2023-08-12T11:54:49;30.10;99.90
2477;DHT22;1249;51.270;6.756;2023-08-12T11:57:15;30.70;99.90
2477;DHT22;1249;51.270;6.756;2023-08-12T11:59:40;31.40;99.90
2477;DHT22;1249;51.270;6.756;2023-08-12T12:02:06;31.60;99.60
2477;DHT22;1249;51.270;6.756;2023-08-12T12:04:32;31.50;97.50
2477;DHT22;1249;51.270;6.756;2023-08-12T12:06:58;31.30;96.60
2477;DHT22;1249;51.270;6.756;2023-08-12T12:09:24;30.90;96.60
2477;DHT22;1249;51.270;6.756;2023-08-12T12:11:54;30.40;97.20
2477;DHT22;1249;51.270;6.756;2023-08-12T12:14:20;30.00;98.30
2477;DHT22;1249;51.270;6.756;2023-08-12T12:16:46;29.80;98.60
2477;DHT22;1249;51.270;6.756;2023-08-12T12:19:16;29.40;98.90
2477;DHT22;1249;51.270;6.756;2023-08-12T12:21:42;29.00;99.60
2477;DHT22;1249;51.270;6.756;2023-08-12T12:24:08;28.50;99.90
2477;DHT22;1249;51.270;6.756;2023-08-12T12:26:34;28.10;99.90
2477;DHT22;1249;51.270;6.756;2023-08-12T12:29:00;27.80;99.90
2477;DHT22;1249;51.270;6.756;2023-08-12T12:31:26;27.40;99.90
2477;DHT22;1249;51.270;6.756;2023-08-12T12:33:51;27.30;99.90
2477;DHT22;1249;51.270;6.756;2023-08-12T12:36:17;27.10;99.90
2477;DHT22;1249;51.270;6.756;2023-08-12T12:38:42;26.90;99.90
2477;DHT22;1249;51.270;6.756;2023-08-12T12:41:08;26.80;99.90
2477;DHT22;1249;51.270;6.756;2023-08-12T12:43:34;26.70;99.90
2477;DHT22;1249;51.270;6.756;2023-08-12T12:45:59;26.60;99.90
2477;DHT22;1249;51.270;6.756;2023-08-12T12:48:25;26.50;99.90
2477;DHT22;1249;51.270;6.756;2023-08-12T12:50:50;26.40;99.90
2477;DHT22;1249;51.270;6.756;2023-08-12T12:53:16;26.40;99.90
2477;DHT22;1249;51.270;6.756;2023-08-12T12:55:42;26.50;99.90
2477;DHT22;1249;51.270;6.756;2023-08-12T12:58:07;26.50;99.90
2477;DHT22;1249;51.270;6.756;2023-08-12T13:00:34;26.70;99.90
2477;DHT22;1249;51.270;6.756;2023-08-12T13:03:00;26.80;99.90
2477;DHT22;1249;51.270;6.756;2023-08-12T13:05:25;26.80;99.90
2477;DHT22;1249;51.270;6.756;2023-08-12T13:07:50;26.90;99.90
2477;DHT22;1249;51.270;6.756;2023-08-12T13:10:16;26.90;99.90
2477;DHT22;1249;51.270;6.756;2023-08-12T13:12:41;27.00;99.90
2477;DHT22;1249;51.270;6.756;2023-08-12T13:15:07;27.00;99.90
2477;DHT22;1249;51.270;6.756;2023-08-12T13:17:33;26.90;99.90
2477;DHT22;1249;51.270;6.756;2023-08-12T13:19:58;26.90;99.90
2477;DHT22;1249;51.270;6.756;2023-08-12T13:22:23;26.80;99.90
2477;DHT22;1249;51.270;6.756;2023-08-12T13:24:49;26.80;99.90
2477;DHT22;1249;51.270;6.756;2023-08-12T13:27:14;26.80;99.90
2477;DHT22;1249;51.270;6.756;2023-08-12T13:29:40;26.90;99.90
2477;DHT22;1249;51.270;6.756;2023-08-12T13:32:05;27.00;99.90
2477;DHT22;1249;51.270;6.756;2023-08-12T13:34:31;27.10;99.90
2477;DHT22;1249;51.270;6.756;2023-08-12T13:36:56;27.20;99.90
2477;DHT22;1249;51.270;6.756;2023-08-12T13:39:22;27.30;99.90
2477;DHT22;1249;51.270;6.756;2023-08-12T13:41:47;27.40;99.90
2477;DHT22;1249;51.270;6.756;2023-08-12T13:44:12;27.50;99.90
2477;DHT22;1249;51.270;6.756;2023-08-12T13:46:38;27.70;99.90
2477;DHT22;1249;51.270;6.756;2023-08-12T13:49:03;28.00;99.90
2477;DHT22;1249;51.270;6.756;2023-08-12T13:51:29;28.20;99.90
2477;DHT22;1249;51.270;6.756;2023-08-12T13:53:55;28.50;99.90
2477;DHT22;1249;51.270;6.756;2023-08-12T13:56:21;28.90;99.90
2477;DHT22;1249;51.270;6.756;2023-08-12T13:58:46;29.30;99.90
2477;DHT22;1249;51.270;6.756;2023-08-12T14:01:12;29.50;99.90
2477;DHT22;1249;51.270;6.756;2023-08-12T14:03:37;29.70;99.90
2477;DHT22;1249;51.270;6.756;2023-08-12T14:06:03;30.00;99.90
2477;DHT22;1249;51.270;6.756;2023-08-12T14:08:28;30.60;99.90
2477;DHT22;1249;51.270;6.756;2023-08-12T14:10:54;31.40;99.90
2477;DHT22;1249;51.270;6.756;2023-08-12T14:13:19;32.60;99.90
2477;DHT22;1249;51.270;6.756;2023-08-12T14:15:45;33.30;95.80
2477;DHT22;1249;51.270;6.756;2023-08-12T14:18:10;33.40;92.60
2477;DHT22;1249;51.270;6.756;2023-08-12T14:20:36;33.10;91.20
2477;DHT22;1249;51.270;6.756;2023-08-12T14:23:01;32.60;90.90
2477;DHT22;1249;51.270;6.756;2023-08-12T14:25:27;32.00;91.70
2477;DHT22;1249;51.270;6.756;2023-08-12T14:27:52;31.40;92.50
2477;DHT22;1249;51.270;6.756;2023-08-12T14:30:18;30.90;93.60
2477;DHT22;1249;51.270;6.756;2023-08-12T14:32:43;30.70;95.60
2477;DHT22;1249;51.270;6.756;2023-08-12T14:35:09;31.10;97.10
2477;DHT22;1249;51.270;6.756;2023-08-12T14:37:34;31.50;96.30
2477;DHT22;1249;51.270;6.756;2023-08-12T14:40:00;32.10;96.00
2477;DHT22;1249;51.270;6.756;2023-08-12T14:42:26;32.90;93.90
2477;DHT22;1249;51.270;6.756;2023-08-12T14:44:51;33.60;91.60
2477;DHT22;1249;51.270;6.756;2023-08-12T14:47:17;33.20;87.10
2477;DHT22;1249;51.270;6.756;2023-08-12T14:49:44;33.20;90.30
2477;DHT22;1249;51.270;6.756;2023-08-12T14:52:16;33.70;90.40
2477;DHT22;1249;51.270;6.756;2023-08-12T14:54:41;34.30;87.50
2477;DHT22;1249;51.270;6.756;2023-08-12T14:57:07;34.30;82.30
2477;DHT22;1249;51.270;6.756;2023-08-12T14:59:32;34.30;85.40
2477;DHT22;1249;51.270;6.756;2023-08-12T15:01:58;34.80;84.40
2477;DHT22;1249;51.270;6.756;2023-08-12T15:04:24;35.10;81.80
2477;DHT22;1249;51.270;6.756;2023-08-12T15:06:49;35.40;79.40
2477;DHT22;1249;51.270;6.756;2023-08-12T15:09:15;35.80;78.40
2477;DHT22;1249;51.270;6.756;2023-08-12T15:11:40;36.00;75.60
2477;DHT22;1249;51.270;6.756;2023-08-12T15:14:05;36.10;75.00
2477;DHT22;1249;51.270;6.756;2023-08-12T15:16:31;36.30;73.50
2477;DHT22;1249;51.270;6.756;2023-08-12T15:18:57;36.50;72.50
2477;DHT22;1249;51.270;6.756;2023-08-12T15:21:22;36.60;71.60
2477;DHT22;1249;51.270;6.756;2023-08-12T15:23:48;36.40;70.80
2477;DHT22;1249;51.270;6.756;2023-08-12T15:26:13;36.40;70.00
2477;DHT22;1249;51.270;6.756;2023-08-12T15:28:39;36.60;70.20
2477;DHT22;1249;51.270;6.756;2023-08-12T15:31:04;36.50;68.30
2477;DHT22;1249;51.270;6.756;2023-08-12T15:33:30;36.50;69.90
2477;DHT22;1249;51.270;6.756;2023-08-12T15:35:55;36.50;67.90
2477;DHT22;1249;51.270;6.756;2023-08-12T15:38:21;36.30;67.40
2477;DHT22;1249;51.270;6.756;2023-08-12T15:40:46;36.00;67.90
2477;DHT22;1249;51.270;6.756;2023-08-12T15:43:12;35.70;68.80
2477;DHT22;1249;51.270;6.756;2023-08-12T15:45:37;35.90;68.60
2477;DHT22;1249;51.270;6.756;2023-08-12T15:48:05;35.80;66.20
2477;DHT22;1249;51.270;6.756;2023-08-12T15:50:31;35.20;64.60
2477;DHT22;1249;51.270;6.756;2023-08-12T15:52:56;34.70;66.10
2477;DHT22;1249;51.270;6.756;2023-08-12T15:55:22;34.00;66.70
2477;DHT22;1249;51.270;6.756;2023-08-12T15:57:47;34.10;68.90
2477;DHT22;1249;51.270;6.756;2023-08-12T16:00:13;34.20;68.20
2477;DHT22;1249;51.270;6.756;2023-08-12T16:02:38;34.30;67.40
2477;DHT22;1249;51.270;6.756;2023-08-12T16:05:04;34.30;66.90